Time;durP1;ratioP1;P1;durP2;ratioP2;P2;SDS_P1;SDS_P2;PMS_P1;PMS_P2;Temp;Humidity;BMP_temperature;BMP_pressure;BME280_temperature;BME280_humidity;BME280_pressure;Samples;Min_cycle;Max_cycle;Signal;HPM_P1;HPM_P2
2021/06/23 00:00:25;;;;;;;;;;;14.00;99.90;;;;;;5056698;28;20286;-62
2021/06/23 00:02:51;;;;;;;13.82;3.45;;;14.00;99.90;;;;;;5074342;28;19905;-61
2021/06/23 00:05:17;;;;;;;12.52;3.92;;;14.00;99.90;;;;;;5074418;28;20358;-61
2021/06/23 00:07:43;;;;;;;12.70;4.38;;;14.00;99.90;;;;;;5074183;28;20043;-61
2021/06/23 00:10:09;;;;;;;8.88;3.50;;;14.00;99.90;;;;;;5074400;28;20020;-61
2021/06/23 00:12:35;;;;;;;12.25;4.70;;;14.00;99.90;;;;;;5074324;28;20040;-61
2021/06/23 00:15:02;;;;;;;11.80;4.43;;;14.00;99.90;;;;;;5074148;28;20048;-60
2021/06/23 00:17:29;;;;;;;15.05;4.55;;;14.10;99.90;;;;;;5074135;28;20035;-60
2021/06/23 00:19:54;;;;;;;10.43;4.78;;;14.10;99.90;;;;;;5056113;28;20028;-60
2021/06/23 00:22:20;;;;;;;14.02;4.40;;;14.10;99.90;;;;;;5073958;28;20021;-60
2021/06/23 00:24:46;;;;;;;10.40;3.90;;;14.10;99.90;;;;;;5056096;28;20064;-61
2021/06/23 00:27:11;;;;;;;13.85;3.55;;;14.10;99.90;;;;;;5073845;28;20090;-62
2021/06/23 00:29:37;;;;;;;12.13;3.53;;;14.10;99.90;;;;;;5073934;28;20028;-61
2021/06/23 00:32:03;;;;;;;9.60;3.30;;;14.00;99.90;;;;;;5073730;28;20074;-61
2021/06/23 00:34:30;;;;;;;10.25;3.30;;;14.00;99.90;;;;;;5074017;28;20432;-60
2021/06/23 00:36:56;;;;;;;12.18;3.15;;;13.90;99.90;;;;;;5073564;28;20040;-62
2021/06/23 00:39:23;;;;;;;7.15;2.80;;;14.00;99.90;;;;;;5073666;28;20043;-61
2021/06/23 00:41:49;;;;;;;11.40;3.13;;;14.00;99.90;;;;;;5073770;28;20052;-61
2021/06/23 00:44:17;;;;;;;10.02;3.35;;;14.00;99.90;;;;;;5073646;28;20027;-61
2021/06/23 00:46:43;;;;;;;10.55;3.55;;;14.00;99.90;;;;;;5073380;28;20029;-62
2021/06/23 00:49:10;;;;;;;9.25;2.97;;;14.00;99.90;;;;;;5073450;28;20074;-61
2021/06/23 00:51:36;;;;;;;8.93;3.47;;;14.00;99.90;;;;;;5055448;28;20032;-61
2021/06/23 00:54:09;;;;;;;13.18;3.17;;;14.00;99.90;;;;;;5073553;28;20048;-61
2021/06/23 00:56:35;;;;;;;12.48;3.50;;;14.00;99.90;;;;;;5055555;28;20031;-61
2021/06/23 00:59:01;;;;;;;12.43;3.22;;;14.00;99.90;;;;;;5055380;28;20017;-61
2021/06/23 01:01:30;;;;;;;11.70;3.50;;;13.90;99.90;;;;;;5073416;28;20477;-61
2021/06/23 01:03:57;;;;;;;7.88;2.90;;;13.90;99.90;;;;;;5073349;28;20473;-61
2021/06/23 01:06:23;;;;;;;11.88;3.08;;;13.90;99.90;;;;;;5054600;28;20465;-61
2021/06/23 01:08:49;;;;;;;10.75;3.10;;;13.90;99.90;;;;;;5073077;28;20078;-61
2021/06/23 01:11:15;;;;;;;10.20;3.08;;;13.90;99.90;;;;;;5073140;28;20410;-61
2021/06/23 01:13:41;;;;;;;15.63;2.90;;;13.90;99.90;;;;;;5073201;28;20021;-61
2021/06/23 01:16:09;;;;;;;9.05;2.58;;;13.90;99.90;;;;;;5073039;28;20099;-61
2021/06/23 01:18:36;;;;;;;7.32;2.60;;;13.90;99.90;;;;;;5073118;28;20111;-61
2021/06/23 01:21:03;;;;;;;13.38;2.83;;;13.90;99.90;;;;;;5073230;28;20082;-61
2021/06/23 01:23:29;;;;;;;8.48;2.67;;;13.90;99.90;;;;;;5073105;28;20039;-61
2021/06/23 01:25:55;;;;;;;8.13;2.70;;;13.90;99.90;;;;;;5073500;28;20414;-61
2021/06/23 01:28:20;;;;;;;9.60;2.72;;;13.90;99.90;;;;;;5072869;28;20043;-61
2021/06/23 01:30:47;;;;;;;8.48;2.63;;;13.90;99.90;;;;;;5072632;28;20017;-61
2021/06/23 01:33:13;;;;;;;9.55;2.70;;;13.90;99.90;;;;;;5072787;28;20474;-61
2021/06/23 01:35:40;;;;;;;7.85;2.70;;;13.90;99.90;;;;;;5054560;28;20028;-60
2021/06/23 01:38:05;;;;;;;6.80;2.60;;;13.90;99.90;;;;;;5054448;28;20068;-60
2021/06/23 01:40:31;;;;;;;11.13;2.88;;;13.90;99.90;;;;;;5072690;28;20070;-61
2021/06/23 01:42:57;;;;;;;10.77;2.80;;;14.00;99.90;;;;;;5072609;28;20028;-61
2021/06/23 01:45:24;;;;;;;10.70;3.03;;;14.00;99.90;;;;;;5072785;28;20519;-62
2021/06/23 01:47:50;;;;;;;13.50;2.72;;;14.00;99.90;;;;;;5072355;28;20027;-61
2021/06/23 01:50:15;;;;;;;10.52;2.55;;;14.00;99.90;;;;;;5072209;28;20040;-61
2021/06/23 01:52:42;;;;;;;6.00;2.45;;;13.90;99.90;;;;;;5072178;28;20044;-61
2021/06/23 01:55:26;;;;;;;8.90;2.83;;;13.80;99.90;;;;;;5072308;28;20513;-61
2021/06/23 01:57:57;;;;;;;6.88;2.70;;;13.80;99.90;;;;;;5054200;28;20509;-62
2021/06/23 02:00:30;;;;;;;12.50;2.90;;;13.80;99.90;;;;;;5054171;28;20071;-61
2021/06/23 02:03:01;;;;;;;12.55;2.63;;;13.70;99.90;;;;;;5072032;28;20051;-61
2021/06/23 02:05:39;;;;;;;10.68;2.92;;;13.70;99.90;;;;;;5072211;28;20052;-62
2021/06/23 02:08:23;;;;;;;11.18;2.15;;;13.80;99.90;;;;;;5054019;28;20029;-61
2021/06/23 02:10:53;;;;;;;9.30;2.85;;;13.70;99.90;;;;;;5071892;28;20020;-61
2021/06/23 02:13:43;;;;;;;10.13;2.58;;;13.70;99.90;;;;;;5054005;28;20021;-61
2021/06/23 02:16:11;;;;;;;8.68;3.10;;;13.70;99.90;;;;;;5053757;28;20031;-61
2021/06/23 02:18:38;;;;;;;11.65;3.30;;;13.70;99.90;;;;;;5070879;28;20047;-61
2021/06/23 02:21:05;;;;;;;11.27;2.78;;;13.70;99.90;;;;;;5071855;28;20028;-60
2021/06/23 02:23:34;;;;;;;11.93;3.03;;;13.80;99.90;;;;;;5053898;28;20055;-60
2021/06/23 02:26:00;;;;;;;10.20;3.17;;;13.80;99.90;;;;;;5071709;28;20032;-60
2021/06/23 02:28:26;;;;;;;11.52;3.63;;;13.80;99.90;;;;;;5071995;28;20062;-59
2021/06/23 02:30:52;;;;;;;9.05;3.13;;;13.80;99.90;;;;;;5071390;28;20024;-59
2021/06/23 02:33:18;;;;;;;10.95;3.55;;;13.90;99.90;;;;;;5071684;28;20101;-61
2021/06/23 02:35:44;;;;;;;11.57;4.70;;;13.90;99.90;;;;;;5071394;28;20071;-61
2021/06/23 02:38:10;;;;;;;14.27;3.95;;;13.90;99.90;;;;;;5071276;28;20055;-60
2021/06/23 02:40:37;;;;;;;16.88;4.72;;;14.00;99.90;;;;;;5071326;28;20381;-60
2021/06/23 02:43:03;;;;;;;13.25;4.40;;;14.00;99.90;;;;;;5053339;28;20477;-60
2021/06/23 02:45:29;;;;;;;12.05;4.00;;;14.00;99.90;;;;;;5071364;28;20033;-60
2021/06/23 02:47:55;;;;;;;13.20;4.40;;;14.00;99.90;;;;;;5071023;28;20489;-60
2021/06/23 02:50:21;;;;;;;12.63;3.90;;;14.00;99.90;;;;;;5071095;28;20024;-60
2021/06/23 02:52:47;;;;;;;12.43;4.80;;;14.00;99.90;;;;;;5071163;28;20222;-61
2021/06/23 02:55:19;;;;;;;12.27;4.80;;;14.00;99.90;;;;;;5071316;28;20362;-60
2021/06/23 02:57:47;;;;;;;14.60;5.07;;;14.00;99.90;;;;;;5071076;28;20441;-61
2021/06/23 03:00:14;;;;;;;15.30;4.88;;;14.00;99.90;;;;;;5070964;28;20048;-61
2021/06/23 03:02:39;;;;;;;12.32;4.65;;;14.00;99.90;;;;;;5071011;28;20037;-60
2021/06/23 03:05:06;;;;;;;10.18;4.43;;;14.10;99.90;;;;;;5071095;28;20038;-61
2021/06/23 03:07:31;;;;;;;7.90;4.70;;;14.00;99.90;;;;;;5052768;28;20079;-60
2021/06/23 03:10:15;;;;;;;15.20;5.72;;;14.00;99.90;;;;;;5052853;28;20064;-60
2021/06/23 03:12:41;;;;;;;9.75;5.72;;;14.00;99.90;;;;;;5070954;28;20052;-60
2021/06/23 03:15:07;;;;;;;17.42;5.82;;;14.00;99.90;;;;;;5070983;28;20059;-60
2021/06/23 03:17:33;;;;;;;12.85;5.72;;;13.90;99.90;;;;;;5070786;28;20074;-60
2021/06/23 03:20:08;;;;;;;11.05;5.75;;;13.90;99.90;;;;;;5070854;28;20024;-60
2021/06/23 03:22:33;;;;;;;16.00;5.82;;;13.80;99.90;;;;;;5070702;28;20447;-60
2021/06/23 03:24:59;;;;;;;14.25;5.47;;;13.80;99.90;;;;;;5070913;28;20020;-61
2021/06/23 03:27:25;;;;;;;15.70;6.05;;;13.70;99.90;;;;;;5070716;28;20035;-60
2021/06/23 03:29:50;;;;;;;12.63;6.13;;;13.70;99.90;;;;;;5070489;28;20405;-60
2021/06/23 03:32:16;;;;;;;17.85;6.20;;;13.60;99.90;;;;;;5070643;28;20047;-61
2021/06/23 03:34:42;;;;;;;13.30;6.20;;;13.60;99.90;;;;;;5070717;28;20036;-60
2021/06/23 03:37:08;;;;;;;14.75;5.82;;;13.60;99.90;;;;;;5049175;28;20719;-60
2021/06/23 03:39:34;;;;;;;18.05;6.85;;;13.60;99.90;;;;;;5050970;28;20083;-60
2021/06/23 03:42:00;;;;;;;13.95;6.53;;;13.70;99.90;;;;;;5050484;28;20032;-60
2021/06/23 03:44:26;;;;;;;15.40;6.97;;;13.60;99.90;;;;;;5050830;28;20028;-60
2021/06/23 03:46:55;;;;;;;17.00;7.15;;;13.70;99.90;;;;;;5050540;28;20377;-60
2021/06/23 03:49:21;;;;;;;16.92;7.22;;;13.70;99.90;;;;;;5050425;28;20025;-60
2021/06/23 03:51:46;;;;;;;15.15;7.63;;;13.60;99.90;;;;;;5050492;28;20033;-60
2021/06/23 03:54:12;;;;;;;14.73;7.15;;;13.70;99.90;;;;;;5050667;28;20056;-61
2021/06/23 03:56:37;;;;;;;17.67;7.78;;;13.80;99.90;;;;;;5050320;28;20021;-60
2021/06/23 03:59:04;;;;;;;12.88;7.28;;;13.80;99.90;;;;;;5050367;28;20505;-61
2021/06/23 04:01:29;;;;;;;22.98;9.57;;;13.80;99.90;;;;;;5050286;28;20029;-61
2021/06/23 04:03:55;;;;;;;14.90;7.60;;;13.90;99.90;;;;;;5050506;28;20592;-61
2021/06/23 04:06:21;;;;;;;14.60;7.75;;;13.80;99.90;;;;;;5050618;28;20029;-61
2021/06/23 04:08:46;;;;;;;18.80;8.30;;;13.70;99.90;;;;;;5050853;28;20057;-61
2021/06/23 04:11:12;;;;;;;12.55;7.65;;;13.70;99.90;;;;;;5048855;28;20021;-61
2021/06/23 04:13:38;;;;;;;14.30;8.80;;;13.60;99.90;;;;;;5050468;28;20377;-61
2021/06/23 04:16:04;;;;;;;23.42;9.00;;;13.60;99.90;;;;;;5050195;28;20355;-60
2021/06/23 04:18:29;;;;;;;16.63;8.75;;;13.50;99.90;;;;;;5050279;28;20029;-60
2021/06/23 04:20:55;;;;;;;18.40;9.35;;;13.50;99.90;;;;;;5050418;28;20108;-61
2021/06/23 04:23:21;;;;;;;15.85;9.52;;;13.50;99.90;;;;;;5050377;28;20025;-61
2021/06/23 04:25:46;;;;;;;15.43;9.55;;;13.50;99.90;;;;;;5048925;28;20032;-61
2021/06/23 04:28:13;;;;;;;22.10;10.30;;;13.60;99.90;;;;;;5050081;28;20385;-61
2021/06/23 04:30:39;;;;;;;21.80;9.98;;;13.50;99.90;;;;;;5050173;28;20024;-61
2021/06/23 04:33:04;;;;;;;16.02;9.50;;;13.60;99.90;;;;;;5050412;28;20020;-62
2021/06/23 04:35:30;;;;;;;15.02;9.50;;;13.50;99.90;;;;;;5050156;28;20021;-60
2021/06/23 04:37:56;;;;;;;15.90;10.13;;;13.70;99.90;;;;;;5063670;28;20120;-60
2021/06/23 04:40:22;;;;;;;17.17;10.25;;;13.80;99.90;;;;;;5070019;28;20028;-60
2021/06/23 04:42:47;;;;;;;16.83;9.05;;;13.70;99.90;;;;;;5055585;28;20032;-62
2021/06/23 04:45:14;;;;;;;19.38;10.07;;;13.70;99.90;;;;;;5055791;28;20078;-59
2021/06/23 04:47:40;;;;;;;22.15;10.77;;;13.80;99.90;;;;;;5073588;28;20384;-60
2021/06/23 04:50:07;;;;;;;16.85;10.63;;;13.90;99.90;;;;;;5073376;28;20101;-60
2021/06/23 04:52:33;;;;;;;20.63;10.75;;;13.90;99.90;;;;;;5073346;28;20016;-60
2021/06/23 04:54:59;;;;;;;16.67;10.40;;;13.90;99.90;;;;;;5073321;28;20029;-60
2021/06/23 04:57:24;;;;;;;20.83;10.95;;;13.90;99.90;;;;;;5073371;28;20113;-60
2021/06/23 04:59:51;;;;;;;16.85;10.85;;;13.80;99.90;;;;;;5055181;28;20027;-60
2021/06/23 05:02:16;;;;;;;22.52;11.10;;;13.80;99.90;;;;;;5073192;28;20020;-61
2021/06/23 05:04:42;;;;;;;16.95;10.60;;;13.80;99.90;;;;;;5073394;28;20028;-61
2021/06/23 05:07:08;;;;;;;16.92;10.57;;;13.90;99.90;;;;;;5073241;28;20044;-61
2021/06/23 05:09:38;;;;;;;22.38;10.13;;;13.80;99.90;;;;;;5073058;28;20056;-61
2021/06/23 05:12:04;;;;;;;21.08;10.52;;;13.80;99.90;;;;;;5073354;28;20035;-61
2021/06/23 05:14:30;;;;;;;19.40;10.05;;;13.90;99.90;;;;;;5073041;28;20044;-61
2021/06/23 05:16:56;;;;;;;22.92;11.13;;;13.80;99.90;;;;;;5054809;28;20477;-60
2021/06/23 05:19:23;;;;;;;18.15;11.63;;;13.90;99.90;;;;;;5072908;28;20552;-60
2021/06/23 05:21:50;;;;;;;17.95;11.00;;;14.00;99.90;;;;;;5072855;28;20096;-60
2021/06/23 05:24:16;;;;;;;17.08;10.85;;;14.00;99.90;;;;;;5072987;28;20039;-60
2021/06/23 05:26:42;;;;;;;17.33;11.00;;;14.00;99.90;;;;;;5072752;28;20104;-60
2021/06/23 05:29:07;;;;;;;19.92;11.27;;;14.00;99.90;;;;;;5072146;28;20115;-61
2021/06/23 05:31:33;;;;;;;25.58;10.88;;;14.00;99.90;;;;;;5072863;28;20477;-58
2021/06/23 05:33:59;;;;;;;21.35;11.27;;;14.10;99.90;;;;;;5066197;28;20025;-60
2021/06/23 05:36:25;;;;;;;20.73;11.65;;;14.00;99.90;;;;;;5057961;28;20044;-61
2021/06/23 05:38:51;;;;;;;17.17;11.75;;;14.10;99.90;;;;;;5073101;28;20055;-61
2021/06/23 05:41:17;;;;;;;17.55;10.80;;;14.20;99.90;;;;;;5072602;28;20112;-61
2021/06/23 05:43:43;;;;;;;16.02;11.07;;;14.00;99.90;;;;;;5072329;28;20513;-61
2021/06/23 05:46:09;;;;;;;22.58;11.80;;;14.00;99.90;;;;;;5050852;28;20025;-61
2021/06/23 05:48:34;;;;;;;17.58;11.48;;;13.90;99.90;;;;;;5052009;28;20036;-61
2021/06/23 05:51:00;;;;;;;23.50;11.35;;;13.90;99.90;;;;;;5051800;28;20517;-61
2021/06/23 05:53:26;;;;;;;18.15;11.00;;;14.00;99.90;;;;;;5050736;28;20036;-61
2021/06/23 05:55:55;;;;;;;17.63;10.48;;;14.00;99.90;;;;;;5047112;28;20032;-62
2021/06/23 05:58:21;;;;;;;18.88;11.27;;;14.20;99.90;;;;;;5042245;28;20036;-62
2021/06/23 06:00:46;;;;;;;19.30;11.77;;;14.20;99.90;;;;;;5059050;28;20401;-61
2021/06/23 06:03:12;;;;;;;17.92;11.02;;;14.30;99.90;;;;;;5055168;28;20029;-62
2021/06/23 06:05:37;;;;;;;17.95;10.98;;;14.30;99.90;;;;;;5034568;28;20052;-61
2021/06/23 06:08:03;;;;;;;19.90;10.68;;;14.20;99.90;;;;;;5043391;28;20033;-61
2021/06/23 06:10:29;;;;;;;16.92;10.52;;;14.10;99.90;;;;;;5050721;28;20025;-60
2021/06/23 06:12:55;;;;;;;17.05;11.52;;;14.20;99.90;;;;;;5056813;28;20377;-59
2021/06/23 06:15:20;;;;;;;18.50;10.95;;;14.30;99.90;;;;;;5061928;28;20017;-61
2021/06/23 06:17:46;;;;;;;23.83;10.52;;;14.30;99.90;;;;;;5043526;28;20052;-61
2021/06/23 06:20:12;;;;;;;17.20;10.73;;;14.20;99.90;;;;;;5037948;28;20029;-62
2021/06/23 06:22:38;;;;;;;20.35;11.05;;;14.20;99.90;;;;;;5062599;28;20104;-61
2021/06/23 06:25:04;;;;;;;23.90;10.23;;;14.40;99.90;;;;;;5060925;28;20119;-60
2021/06/23 06:27:30;;;;;;;21.85;10.68;;;14.50;99.90;;;;;;5052562;28;20025;-61
2021/06/23 06:29:55;;;;;;;24.48;9.70;;;14.50;99.90;;;;;;5048137;28;20035;-61
2021/06/23 06:32:21;;;;;;;21.50;10.35;;;14.50;99.90;;;;;;5057116;28;20039;-61
2021/06/23 06:34:47;;;;;;;17.75;10.45;;;14.60;99.90;;;;;;5057432;28;20051;-60
2021/06/23 06:37:12;;;;;;;20.65;10.18;;;14.60;99.90;;;;;;5055336;28;20044;-61
2021/06/23 06:39:38;;;;;;;14.38;10.07;;;14.40;99.90;;;;;;5038250;28;20058;-61
2021/06/23 06:42:05;;;;;;;19.98;10.32;;;14.40;99.90;;;;;;5060166;28;20029;-61
2021/06/23 06:44:32;;;;;;;17.88;10.60;;;14.60;99.90;;;;;;5055210;28;20371;-61
2021/06/23 06:46:58;;;;;;;15.23;10.00;;;14.90;99.90;;;;;;5039655;28;20032;-59
2021/06/23 06:49:27;;;;;;;11.95;9.88;;;15.00;99.90;;;;;;5044775;28;20036;-60
2021/06/23 06:51:57;;;;;;;16.30;10.65;;;15.10;99.90;;;;;;5046125;28;20025;-60
2021/06/23 06:54:23;;;;;;;19.25;11.75;;;14.90;99.90;;;;;;5068080;28;20570;-61
2021/06/23 06:56:49;;;;;;;22.25;11.75;;;15.00;99.90;;;;;;5046154;28;20042;-61
2021/06/23 06:59:14;;;;;;;16.63;11.55;;;15.00;99.90;;;;;;5057119;28;20337;-61
2021/06/23 07:01:40;;;;;;;17.67;10.50;;;15.20;99.90;;;;;;5058454;28;20148;-60
2021/06/23 07:04:05;;;;;;;18.73;11.18;;;15.40;99.90;;;;;;5059253;28;20028;-61
2021/06/23 07:06:31;;;;;;;21.55;10.65;;;15.70;99.90;;;;;;5066032;28;20044;-60
2021/06/23 07:09:00;;;;;;;18.67;10.68;;;15.80;99.90;;;;;;5050598;28;20041;-61
2021/06/23 07:11:25;;;;;;;16.08;10.15;;;15.80;99.90;;;;;;5033728;28;20124;-60
2021/06/23 07:13:51;;;;;;;19.55;11.38;;;15.80;99.90;;;;;;5057518;28;20056;-60
2021/06/23 07:16:17;;;;;;;19.05;10.80;;;15.90;99.90;;;;;;5036158;28;20024;-60
2021/06/23 07:18:43;;;;;;;15.35;10.85;;;15.90;99.90;;;;;;5056572;28;20041;-61
2021/06/23 07:21:09;;;;;;;17.42;10.60;;;15.90;99.90;;;;;;5065603;28;20124;-60
2021/06/23 07:23:35;;;;;;;14.13;11.55;;;16.00;99.90;;;;;;5060746;28;20107;-61
2021/06/23 07:26:00;;;;;;;18.05;11.40;;;16.00;99.90;;;;;;5057216;28;20033;-61
2021/06/23 07:28:40;;;;;;;17.83;10.88;;;16.30;99.90;;;;;;5040698;28;20576;-59
2021/06/23 07:31:08;;;;;;;16.75;12.05;;;16.40;99.90;;;;;;5053198;28;20029;-60
2021/06/23 07:33:35;;;;;;;17.00;11.98;;;16.40;99.90;;;;;;5063322;28;20029;-61
2021/06/23 07:38:55;;;;;;;15.73;11.65;;;16.70;99.90;;;;;;4983885;28;20070;-62
2021/06/23 07:41:20;;;;;;;16.35;12.50;;;16.50;99.90;;;;;;5049260;28;20496;-60
2021/06/23 07:43:46;;;;;;;17.15;11.38;;;16.20;99.90;;;;;;5058090;28;20090;-60
2021/06/23 07:46:12;;;;;;;20.92;12.65;;;16.20;99.90;;;;;;5053728;28;20025;-61
2021/06/23 07:48:38;;;;;;;21.17;12.05;;;16.30;99.90;;;;;;5053631;28;20165;-61
2021/06/23 07:51:10;;;;;;;17.58;12.60;;;16.50;99.90;;;;;;5053828;28;20024;-60
2021/06/23 07:54:02;;;;;;;18.73;11.23;;;16.50;99.90;;;;;;5046724;28;20095;-61
2021/06/23 07:56:43;;;;;;;15.57;12.00;;;16.30;99.90;;;;;;5056262;28;20035;-63
2021/06/23 08:10:00;;;;;;;19.88;11.43;;;16.20;99.90;;;;;;5052664;28;20040;-60
2021/06/23 08:12:29;;;;;;;22.33;12.25;;;16.10;99.90;;;;;;5049021;28;20029;-61
2021/06/23 08:14:54;;;;;;;20.27;11.60;;;16.30;99.90;;;;;;5058001;28;20025;-61
2021/06/23 08:17:20;;;;;;;23.23;11.32;;;16.50;99.90;;;;;;5064150;28;20013;-61
2021/06/23 08:19:46;;;;;;;26.35;12.60;;;16.70;99.90;;;;;;5045513;28;20028;-61
2021/06/23 08:22:12;;;;;;;32.78;12.98;;;16.90;99.90;;;;;;5066542;28;20086;-61
2021/06/23 08:24:39;;;;;;;19.52;11.68;;;17.00;99.90;;;;;;5062616;28;20146;-61
2021/06/23 08:27:06;;;;;;;17.55;11.13;;;17.00;99.90;;;;;;5046536;28;20040;-60
2021/06/23 08:29:32;;;;;;;17.45;10.88;;;17.00;99.90;;;;;;5060167;28;20028;-61
2021/06/23 08:31:58;;;;;;;15.00;9.90;;;17.10;99.90;;;;;;5057982;28;20055;-61
2021/06/23 08:34:25;;;;;;;14.43;10.48;;;17.10;99.90;;;;;;5056012;28;20033;-61
2021/06/23 08:36:51;;;;;;;14.35;10.55;;;16.60;99.90;;;;;;5060243;28;20032;-61
2021/06/23 08:39:17;;;;;;;16.30;10.80;;;16.40;99.90;;;;;;5054512;28;20082;-60
2021/06/23 08:41:42;;;;;;;16.23;10.35;;;16.50;99.90;;;;;;5058796;28;20041;-61
2021/06/23 08:44:08;;;;;;;17.70;10.60;;;16.40;99.90;;;;;;5055061;28;20036;-62
2021/06/23 08:46:37;;;;;;;12.88;9.90;;;16.30;99.90;;;;;;5044734;28;20025;-62
2021/06/23 08:49:05;;;;;;;16.40;10.05;;;16.10;99.90;;;;;;5050798;28;20033;-60
2021/06/23 08:51:31;;;;;;;17.50;10.70;;;16.00;99.90;;;;;;5059982;28;20047;-61
2021/06/23 08:53:57;;;;;;;17.05;10.25;;;16.00;99.90;;;;;;5045556;28;20492;-61
2021/06/23 08:56:23;;;;;;;13.80;10.77;;;16.10;99.90;;;;;;5070826;28;20059;-60
2021/06/23 08:58:49;;;;;;;17.25;10.13;;;16.20;99.90;;;;;;5072849;28;20059;-60
2021/06/23 09:01:14;;;;;;;14.77;9.73;;;16.30;99.90;;;;;;5054902;28;20285;-61
2021/06/23 09:04:02;;;;;;;12.98;8.95;;;16.30;99.90;;;;;;5063391;28;20028;-60
2021/06/23 09:06:43;;;;;;;16.83;9.68;;;16.20;99.90;;;;;;5049807;28;20124;-61
2021/06/23 09:09:25;;;;;;;14.48;9.15;;;16.20;99.90;;;;;;5065733;28;20031;-61
2021/06/23 09:12:03;;;;;;;14.80;8.27;;;16.20;99.90;;;;;;5061748;28;20037;-61
2021/06/23 09:14:30;;;;;;;13.27;8.50;;;16.50;99.90;;;;;;5055775;28;20037;-61
2021/06/23 09:17:17;;;;;;;14.45;8.70;;;16.40;99.90;;;;;;5060911;28;20029;-61
2021/06/23 09:19:51;;;;;;;12.20;8.23;;;16.30;99.90;;;;;;5065894;28;20028;-61
2021/06/23 09:22:49;;;;;;;15.32;8.95;;;16.00;99.90;;;;;;5042260;28;20040;-61
2021/06/23 09:25:18;;;;;;;14.93;9.10;;;15.90;99.90;;;;;;5044418;28;20460;-60
2021/06/23 09:27:52;;;;;;;12.98;8.93;;;15.90;99.90;;;;;;5066510;28;20362;-61
2021/06/23 09:30:23;;;;;;;14.18;8.50;;;15.90;99.90;;;;;;5059836;28;20063;-61
2021/06/23 09:33:13;;;;;;;20.75;9.15;;;15.90;99.90;;;;;;5065549;28;20108;-61
2021/06/23 09:35:41;;;;;;;17.48;8.73;;;15.80;99.90;;;;;;5059482;28;20017;-62
2021/06/23 09:38:36;;;;;;;14.57;9.05;;;15.70;99.90;;;;;;5063245;28;20119;-59
2021/06/23 09:41:04;;;;;;;19.88;9.55;;;15.80;99.90;;;;;;5017159;28;20029;-61
2021/06/23 09:43:40;;;;;;;16.05;9.05;;;15.90;99.90;;;;;;5060323;28;20032;-61
2021/06/23 09:46:14;;;;;;;27.90;9.45;;;16.00;99.90;;;;;;5048575;28;20036;-61
2021/06/23 09:48:39;;;;;;;21.75;9.35;;;16.10;99.90;;;;;;5043393;28;20043;-61
2021/06/23 09:51:13;;;;;;;14.77;9.27;;;16.10;99.90;;;;;;5034160;28;20033;-60
2021/06/23 09:53:39;;;;;;;14.63;8.77;;;16.30;99.90;;;;;;5047119;28;20182;-60
2021/06/23 09:56:25;;;;;;;13.77;8.70;;;16.30;99.90;;;;;;5065477;28;20187;-61
2021/06/23 09:58:53;;;;;;;12.23;8.18;;;16.70;99.90;;;;;;5059935;28;20032;-60
2021/06/23 10:01:18;;;;;;;16.95;8.90;;;16.60;99.90;;;;;;5059772;28;20052;-60
2021/06/23 10:04:05;;;;;;;16.80;8.93;;;16.40;99.90;;;;;;5058744;28;20543;-61
2021/06/23 10:06:38;;;;;;;12.07;8.48;;;16.60;99.90;;;;;;5061676;28;20481;-60
2021/06/23 10:09:27;;;;;;;15.95;8.82;;;16.70;99.90;;;;;;5061735;28;20028;-60
2021/06/23 10:12:07;;;;;;;17.38;8.95;;;16.70;99.90;;;;;;5038022;28;20033;-60
2021/06/23 10:14:43;;;;;;;14.65;8.55;;;16.90;99.90;;;;;;5057637;28;20020;-61
2021/06/23 10:17:09;;;;;;;17.60;7.75;;;16.90;99.90;;;;;;5055502;28;20038;-61
2021/06/23 10:19:36;;;;;;;16.38;8.40;;;16.90;99.90;;;;;;5058568;28;20123;-61
2021/06/23 10:22:06;;;;;;;11.73;7.88;;;16.80;99.90;;;;;;5060448;28;20029;-60
2021/06/23 10:24:33;;;;;;;14.38;7.85;;;16.80;99.90;;;;;;5057550;28;20025;-59
2021/06/23 10:27:02;;;;;;;13.55;7.95;;;16.90;99.90;;;;;;5054902;28;20036;-61
2021/06/23 10:29:34;;;;;;;17.00;8.60;;;16.80;99.90;;;;;;5059923;28;20460;-60
2021/06/23 10:32:02;;;;;;;15.57;8.40;;;16.90;99.90;;;;;;5054254;28;20116;-60
2021/06/23 10:34:28;;;;;;;14.65;8.75;;;17.00;99.90;;;;;;5036584;28;20042;-61
2021/06/23 10:36:55;;;;;;;15.50;7.90;;;17.10;99.90;;;;;;5067990;28;20107;-60
2021/06/23 10:39:23;;;;;;;12.07;7.43;;;17.10;99.90;;;;;;5059064;28;20412;-61
2021/06/23 10:41:58;;;;;;;13.98;7.75;;;17.30;99.90;;;;;;5052195;28;20044;-60
2021/06/23 10:44:31;;;;;;;11.52;7.10;;;17.40;99.90;;;;;;5065760;28;20238;-61
2021/06/23 10:47:00;;;;;;;12.85;7.30;;;17.50;99.90;;;;;;5037947;28;20055;-60
2021/06/23 10:49:49;;;;;;;12.75;7.07;;;17.60;99.90;;;;;;5064550;28;20552;-61
2021/06/23 10:52:21;;;;;;;12.55;6.47;;;17.70;99.90;;;;;;5068236;28;20025;-61
2021/06/23 10:54:56;;;;;;;13.75;6.97;;;18.00;99.90;;;;;;5068568;28;20032;-61
2021/06/23 10:57:28;;;;;;;10.80;6.85;;;18.00;99.90;;;;;;5069565;28;20053;-60
2021/06/23 10:59:56;;;;;;;12.40;6.90;;;18.10;99.90;;;;;;5043702;28;20025;-60
2021/06/23 11:02:34;;;;;;;15.15;6.55;;;18.20;99.90;;;;;;5063278;28;20028;-61
2021/06/23 11:05:01;;;;;;;15.07;6.90;;;18.20;99.90;;;;;;5068793;28;20055;-60
2021/06/23 11:07:39;;;;;;;12.63;6.82;;;18.10;99.90;;;;;;5070054;28;20027;-61
2021/06/23 11:10:14;;;;;;;13.57;6.55;;;18.10;99.90;;;;;;5068182;28;20578;-61
2021/06/23 11:12:47;;;;;;;10.55;6.53;;;18.10;99.90;;;;;;5070368;28;20025;-61
2021/06/23 11:15:31;;;;;;;12.35;6.85;;;18.20;99.90;;;;;;5050362;28;20021;-60
2021/06/23 11:18:18;;;;;;;13.23;6.68;;;18.20;99.90;;;;;;5031900;28;20512;-61
2021/06/23 11:21:08;;;;;;;11.27;6.15;;;18.30;99.90;;;;;;5050998;28;20465;-61
2021/06/23 11:23:43;;;;;;;12.18;6.97;;;18.60;99.90;;;;;;5016997;28;20079;-60
2021/06/23 11:26:29;;;;;;;12.85;7.57;;;18.60;99.90;;;;;;5048835;28;20032;-61
2021/06/23 11:29:10;;;;;;;14.65;6.57;;;18.50;99.90;;;;;;5050361;28;20279;-60
2021/06/23 11:32:02;;;;;;;10.82;6.78;;;18.50;99.90;;;;;;5050666;28;20025;-60
2021/06/23 11:34:40;;;;;;;14.38;7.32;;;18.50;99.90;;;;;;5024148;28;20083;-60
2021/06/23 11:37:08;;;;;;;15.65;7.20;;;18.60;99.90;;;;;;5050161;28;20045;-60
2021/06/23 11:39:34;;;;;;;14.77;8.05;;;18.50;99.90;;;;;;5050839;28;20135;-60
2021/06/23 11:41:59;;;;;;;12.43;7.25;;;18.30;99.90;;;;;;5050315;28;20159;-60
2021/06/23 11:44:25;;;;;;;16.20;8.10;;;18.30;99.90;;;;;;5032674;28;20029;-60
2021/06/23 11:46:53;;;;;;;16.17;8.10;;;18.30;99.90;;;;;;5050578;28;20534;-59
2021/06/23 11:49:19;;;;;;;11.93;7.97;;;18.50;99.90;;;;;;5050236;28;20094;-60
2021/06/23 11:51:45;;;;;;;14.00;7.38;;;18.90;99.90;;;;;;5036615;28;20429;-60
2021/06/23 11:54:10;;;;;;;18.70;7.53;;;18.90;99.90;;;;;;5054832;28;20052;-60
2021/06/23 11:56:36;;;;;;;15.38;8.07;;;18.90;99.90;;;;;;5036784;28;20029;-61
2021/06/23 11:59:02;;;;;;;16.08;8.13;;;19.10;99.90;;;;;;5036441;28;20083;-61
2021/06/23 12:01:28;;;;;;;15.90;8.63;;;19.00;99.90;;;;;;5054277;28;20485;-60
2021/06/23 12:03:55;;;;;;;14.15;9.05;;;18.70;99.90;;;;;;5054530;28;20036;-61
2021/06/23 12:06:21;;;;;;;16.27;9.13;;;18.60;99.90;;;;;;5054179;28;20020;-60
2021/06/23 12:08:47;;;;;;;11.13;8.90;;;18.40;99.90;;;;;;5066935;28;20036;-60
2021/06/23 12:11:12;;;;;;;15.05;9.27;;;18.60;99.90;;;;;;5073155;28;20029;-60
2021/06/23 12:13:39;;;;;;;19.33;9.07;;;18.50;99.90;;;;;;5068545;28;20021;-60
2021/06/23 12:16:05;;;;;;;16.48;9.15;;;18.60;99.90;;;;;;5055426;28;20036;-60
2021/06/23 12:18:30;;;;;;;15.43;8.88;;;19.10;99.90;;;;;;5073471;28;20057;-61
2021/06/23 12:20:56;;;;;;;14.02;9.68;;;19.10;99.90;;;;;;5054416;28;20032;-61
2021/06/23 12:23:22;;;;;;;15.68;9.25;;;19.30;99.90;;;;;;5073439;28;20028;-61
2021/06/23 12:25:50;;;;;;;17.95;9.57;;;19.10;99.90;;;;;;5069815;28;20039;-61
2021/06/23 12:28:16;;;;;;;13.75;9.45;;;19.40;99.90;;;;;;5073185;28;20099;-61
2021/06/23 12:30:44;;;;;;;13.45;9.15;;;19.30;99.90;;;;;;5073833;28;20485;-61
2021/06/23 12:33:11;;;;;;;16.75;10.55;;;18.90;99.90;;;;;;5073146;28;20082;-61
2021/06/23 12:35:38;;;;;;;15.95;10.45;;;18.60;99.90;;;;;;5071076;28;20139;-60
2021/06/23 12:38:13;;;;;;;18.42;10.68;;;18.70;99.90;;;;;;5069443;28;20119;-61
2021/06/23 12:40:40;;;;;;;14.63;10.73;;;18.80;99.90;;;;;;5072597;28;20043;-61
2021/06/23 12:43:15;;;;;;;20.98;10.20;;;18.70;99.90;;;;;;5072848;28;20047;-61
2021/06/23 12:45:43;;;;;;;17.52;10.43;;;18.90;99.90;;;;;;5072269;28;20367;-60
2021/06/23 12:48:10;;;;;;;15.10;10.80;;;19.00;99.90;;;;;;5073191;28;20025;-61
2021/06/23 12:50:36;;;;;;;14.98;10.57;;;19.00;99.90;;;;;;5072988;28;20021;-61
2021/06/23 12:53:03;;;;;;;17.17;9.90;;;19.20;99.90;;;;;;5072826;28;20021;-61
2021/06/23 12:55:28;;;;;;;16.88;9.27;;;19.30;99.90;;;;;;5072293;28;20496;-61